sensor_id;sensor_type;location;lat;lon;timestamp;P1;durP1;ratioP1;P2;durP2;ratioP2
17890;SDS011;9071;48.220;14.480;2022-07-06T00:03:48;21.23;;;17.67;;
17890;SDS011;9071;48.220;14.480;2022-07-06T00:08:50;19.50;;;17.25;;
17890;SDS011;9071;48.220;14.480;2022-07-06T00:13:53;22.67;;;19.60;;
17890;SDS011;9071;48.220;14.480;2022-07-06T00:18:56;20.60;;;18.38;;
17890;SDS011;9071;48.220;14.480;2022-07-06T00:23:58;22.25;;;19.77;;
17890;SDS011;9071;48.220;14.480;2022-07-06T00:29:02;23.75;;;19.48;;
17890;SDS011;9071;48.220;14.480;2022-07-06T00:34:04;24.98;;;20.30;;
17890;SDS011;9071;48.220;14.480;2022-07-06T00:39:06;22.45;;;20.20;;
17890;SDS011;9071;48.220;14.480;2022-07-06T00:44:10;24.55;;;21.88;;
17890;SDS011;9071;48.220;14.480;2022-07-06T00:49:12;25.92;;;21.23;;
17890;SDS011;9071;48.220;14.480;2022-07-06T00:54:28;26.13;;;21.20;;
17890;SDS011;9071;48.220;14.480;2022-07-06T00:59:34;25.98;;;22.13;;
17890;SDS011;9071;48.220;14.480;2022-07-06T01:04:36;26.10;;;21.25;;
17890;SDS011;9071;48.220;14.480;2022-07-06T01:09:39;22.35;;;20.02;;
17890;SDS011;9071;48.220;14.480;2022-07-06T01:14:42;23.88;;;21.27;;
17890;SDS011;9071;48.220;14.480;2022-07-06T01:19:45;27.23;;;24.25;;
17890;SDS011;9071;48.220;14.480;2022-07-06T01:24:48;30.90;;;24.27;;
17890;SDS011;9071;48.220;14.480;2022-07-06T01:29:50;26.58;;;23.23;;
17890;SDS011;9071;48.220;14.480;2022-07-06T01:34:53;26.15;;;21.83;;
17890;SDS011;9071;48.220;14.480;2022-07-06T01:39:58;28.77;;;23.97;;
17890;SDS011;9071;48.220;14.480;2022-07-06T01:45:01;30.45;;;24.65;;
17890;SDS011;9071;48.220;14.480;2022-07-06T01:50:05;29.48;;;25.55;;
17890;SDS011;9071;48.220;14.480;2022-07-06T01:55:10;28.23;;;23.53;;
17890;SDS011;9071;48.220;14.480;2022-07-06T02:00:12;26.70;;;22.65;;
17890;SDS011;9071;48.220;14.480;2022-07-06T02:05:15;27.33;;;23.70;;
17890;SDS011;9071;48.220;14.480;2022-07-06T02:10:19;33.00;;;24.70;;
17890;SDS011;9071;48.220;14.480;2022-07-06T02:15:21;28.23;;;24.27;;
17890;SDS011;9071;48.220;14.480;2022-07-06T02:20:23;30.83;;;24.17;;
17890;SDS011;9071;48.220;14.480;2022-07-06T02:25:27;32.00;;;25.80;;
17890;SDS011;9071;48.220;14.480;2022-07-06T02:30:29;26.97;;;23.97;;
17890;SDS011;9071;48.220;14.480;2022-07-06T02:35:31;29.50;;;23.03;;
17890;SDS011;9071;48.220;14.480;2022-07-06T02:40:35;30.57;;;25.17;;
17890;SDS011;9071;48.220;14.480;2022-07-06T02:45:38;25.80;;;22.93;;
17890;SDS011;9071;48.220;14.480;2022-07-06T02:50:40;28.97;;;22.10;;
17890;SDS011;9071;48.220;14.480;2022-07-06T02:55:44;25.97;;;22.23;;
17890;SDS011;9071;48.220;14.480;2022-07-06T03:00:46;24.80;;;20.97;;
17890;SDS011;9071;48.220;14.480;2022-07-06T03:05:48;26.40;;;22.87;;
17890;SDS011;9071;48.220;14.480;2022-07-06T03:10:51;26.97;;;22.23;;
17890;SDS011;9071;48.220;14.480;2022-07-06T03:15:53;35.57;;;25.97;;
17890;SDS011;9071;48.220;14.480;2022-07-06T03:20:56;30.03;;;23.77;;
17890;SDS011;9071;48.220;14.480;2022-07-06T03:25:59;25.40;;;22.07;;
17890;SDS011;9071;48.220;14.480;2022-07-06T03:31:01;26.97;;;23.63;;
17890;SDS011;9071;48.220;14.480;2022-07-06T03:36:03;30.23;;;23.17;;
17890;SDS011;9071;48.220;14.480;2022-07-06T03:41:07;31.57;;;23.93;;
17890;SDS011;9071;48.220;14.480;2022-07-06T03:46:09;30.63;;;23.27;;
17890;SDS011;9071;48.220;14.480;2022-07-06T03:51:11;42.17;;;22.73;;
17890;SDS011;9071;48.220;14.480;2022-07-06T03:56:15;27.37;;;22.03;;
17890;SDS011;9071;48.220;14.480;2022-07-06T04:01:29;29.23;;;22.63;;
17890;SDS011;9071;48.220;14.480;2022-07-06T04:06:31;30.27;;;22.43;;
17890;SDS011;9071;48.220;14.480;2022-07-06T04:11:36;26.77;;;20.97;;
17890;SDS011;9071;48.220;14.480;2022-07-06T04:16:38;27.77;;;22.83;;
17890;SDS011;9071;48.220;14.480;2022-07-06T04:21:40;31.17;;;20.70;;
17890;SDS011;9071;48.220;14.480;2022-07-06T04:26:43;30.67;;;20.07;;
17890;SDS011;9071;48.220;14.480;2022-07-06T04:31:45;27.15;;;19.70;;
17890;SDS011;9071;48.220;14.480;2022-07-06T04:36:47;26.30;;;19.93;;
17890;SDS011;9071;48.220;14.480;2022-07-06T04:41:51;24.80;;;19.10;;
17890;SDS011;9071;48.220;14.480;2022-07-06T04:46:53;25.92;;;19.60;;
17890;SDS011;9071;48.220;14.480;2022-07-06T04:51:55;17.83;;;15.35;;
17890;SDS011;9071;48.220;14.480;2022-07-06T04:56:58;21.58;;;17.27;;
17890;SDS011;9071;48.220;14.480;2022-07-06T05:02:00;21.85;;;16.45;;
17890;SDS011;9071;48.220;14.480;2022-07-06T05:07:03;22.98;;;16.40;;
17890;SDS011;9071;48.220;14.480;2022-07-06T05:12:07;17.75;;;15.10;;
17890;SDS011;9071;48.220;14.480;2022-07-06T05:17:10;15.80;;;12.55;;
17890;SDS011;9071;48.220;14.480;2022-07-06T05:22:12;12.77;;;11.57;;
17890;SDS011;9071;48.220;14.480;2022-07-06T05:27:15;12.70;;;10.18;;
17890;SDS011;9071;48.220;14.480;2022-07-06T05:32:17;10.25;;;6.78;;
17890;SDS011;9071;48.220;14.480;2022-07-06T05:37:19;8.52;;;5.78;;
17890;SDS011;9071;48.220;14.480;2022-07-06T05:42:23;20.80;;;6.10;;
17890;SDS011;9071;48.220;14.480;2022-07-06T05:47:25;11.75;;;5.00;;
17890;SDS011;9071;48.220;14.480;2022-07-06T05:52:50;4.95;;;4.22;;
17890;SDS011;9071;48.220;14.480;2022-07-06T05:57:58;8.27;;;4.40;;
17890;SDS011;9071;48.220;14.480;2022-07-06T06:03:01;5.88;;;3.63;;
17890;SDS011;9071;48.220;14.480;2022-07-06T06:08:03;4.30;;;3.78;;
17890;SDS011;9071;48.220;14.480;2022-07-06T06:13:07;6.65;;;4.07;;
17890;SDS011;9071;48.220;14.480;2022-07-06T06:18:09;6.28;;;3.85;;
17890;SDS011;9071;48.220;14.480;2022-07-06T06:23:11;9.85;;;4.60;;
17890;SDS011;9071;48.220;14.480;2022-07-06T06:28:15;6.93;;;4.20;;
17890;SDS011;9071;48.220;14.480;2022-07-06T06:33:18;6.90;;;3.95;;
17890;SDS011;9071;48.220;14.480;2022-07-06T06:38:22;4.45;;;3.50;;
17890;SDS011;9071;48.220;14.480;2022-07-06T06:43:27;6.75;;;4.00;;
17890;SDS011;9071;48.220;14.480;2022-07-06T06:48:29;4.55;;;3.67;;
17890;SDS011;9071;48.220;14.480;2022-07-06T06:53:32;4.68;;;3.65;;
17890;SDS011;9071;48.220;14.480;2022-07-06T06:58:35;6.93;;;3.47;;
17890;SDS011;9071;48.220;14.480;2022-07-06T07:03:37;8.30;;;3.38;;
17890;SDS011;9071;48.220;14.480;2022-07-06T07:08:39;4.05;;;3.03;;
17890;SDS011;9071;48.220;14.480;2022-07-06T07:13:43;4.07;;;2.50;;
17890;SDS011;9071;48.220;14.480;2022-07-06T07:18:45;5.25;;;2.70;;
17890;SDS011;9071;48.220;14.480;2022-07-06T07:23:47;4.22;;;2.30;;
17890;SDS011;9071;48.220;14.480;2022-07-06T07:28:51;5.53;;;2.47;;
17890;SDS011;9071;48.220;14.480;2022-07-06T07:33:53;6.47;;;2.22;;
17890;SDS011;9071;48.220;14.480;2022-07-06T07:39:00;3.80;;;2.20;;
17890;SDS011;9071;48.220;14.480;2022-07-06T07:44:04;5.50;;;2.30;;
17890;SDS011;9071;48.220;14.480;2022-07-06T07:49:07;2.88;;;2.40;;
17890;SDS011;9071;48.220;14.480;2022-07-06T07:54:09;11.65;;;3.35;;
17890;SDS011;9071;48.220;14.480;2022-07-06T07:59:13;4.45;;;2.13;;
17890;SDS011;9071;48.220;14.480;2022-07-06T08:04:15;4.72;;;2.28;;
17890;SDS011;9071;48.220;14.480;2022-07-06T08:09:17;3.75;;;2.00;;
17890;SDS011;9071;48.220;14.480;2022-07-06T08:14:20;2.47;;;1.90;;
17890;SDS011;9071;48.220;14.480;2022-07-06T08:19:22;4.72;;;2.20;;
17890;SDS011;9071;48.220;14.480;2022-07-06T08:24:24;6.88;;;2.45;;
17890;SDS011;9071;48.220;14.480;2022-07-06T08:29:28;11.38;;;2.60;;
17890;SDS011;9071;48.220;14.480;2022-07-06T08:34:30;5.82;;;2.40;;
17890;SDS011;9071;48.220;14.480;2022-07-06T08:39:32;5.63;;;2.00;;
17890;SDS011;9071;48.220;14.480;2022-07-06T08:44:36;7.95;;;2.17;;
17890;SDS011;9071;48.220;14.480;2022-07-06T08:49:38;7.35;;;2.72;;
17890;SDS011;9071;48.220;14.480;2022-07-06T08:54:41;6.18;;;2.33;;
17890;SDS011;9071;48.220;14.480;2022-07-06T08:59:45;8.45;;;2.22;;
17890;SDS011;9071;48.220;14.480;2022-07-06T09:04:47;2.80;;;1.73;;
17890;SDS011;9071;48.220;14.480;2022-07-06T09:09:52;3.95;;;1.85;;
17890;SDS011;9071;48.220;14.480;2022-07-06T09:14:57;5.40;;;2.10;;
17890;SDS011;9071;48.220;14.480;2022-07-06T09:19:59;7.28;;;2.10;;
17890;SDS011;9071;48.220;14.480;2022-07-06T09:25:03;4.03;;;2.13;;
17890;SDS011;9071;48.220;14.480;2022-07-06T09:30:08;2.33;;;1.90;;
17890;SDS011;9071;48.220;14.480;2022-07-06T09:35:19;9.07;;;2.30;;
17890;SDS011;9071;48.220;14.480;2022-07-06T09:40:22;2.83;;;2.08;;
17890;SDS011;9071;48.220;14.480;2022-07-06T09:45:29;3.20;;;2.00;;
17890;SDS011;9071;48.220;14.480;2022-07-06T09:50:33;3.78;;;2.00;;
17890;SDS011;9071;48.220;14.480;2022-07-06T09:55:42;4.90;;;2.10;;
17890;SDS011;9071;48.220;14.480;2022-07-06T10:00:47;6.60;;;2.40;;
17890;SDS011;9071;48.220;14.480;2022-07-06T10:05:51;7.53;;;2.03;;
17890;SDS011;9071;48.220;14.480;2022-07-06T10:10:54;4.40;;;2.22;;
17890;SDS011;9071;48.220;14.480;2022-07-06T10:15:57;4.03;;;2.00;;
17890;SDS011;9071;48.220;14.480;2022-07-06T10:21:00;7.40;;;2.38;;
17890;SDS011;9071;48.220;14.480;2022-07-06T10:26:02;2.72;;;2.45;;
17890;SDS011;9071;48.220;14.480;2022-07-06T10:31:09;4.70;;;2.20;;
17890;SDS011;9071;48.220;14.480;2022-07-06T10:36:11;3.70;;;1.98;;
17890;SDS011;9071;48.220;14.480;2022-07-06T10:41:15;5.03;;;2.33;;
17890;SDS011;9071;48.220;14.480;2022-07-06T10:46:19;3.42;;;2.10;;
17890;SDS011;9071;48.220;14.480;2022-07-06T10:51:24;4.50;;;2.20;;
17890;SDS011;9071;48.220;14.480;2022-07-06T10:56:31;2.40;;;2.05;;
17890;SDS011;9071;48.220;14.480;2022-07-06T11:01:35;4.60;;;2.60;;
17890;SDS011;9071;48.220;14.480;2022-07-06T11:06:39;7.18;;;2.88;;
17890;SDS011;9071;48.220;14.480;2022-07-06T11:11:42;3.45;;;2.10;;
17890;SDS011;9071;48.220;14.480;2022-07-06T11:17:01;2.30;;;2.00;;
17890;SDS011;9071;48.220;14.480;2022-07-06T11:22:05;3.40;;;2.00;;
17890;SDS011;9071;48.220;14.480;2022-07-06T11:27:09;4.75;;;2.17;;
17890;SDS011;9071;48.220;14.480;2022-07-06T11:32:12;4.20;;;2.20;;
17890;SDS011;9071;48.220;14.480;2022-07-06T11:37:14;3.58;;;1.70;;
17890;SDS011;9071;48.220;14.480;2022-07-06T11:42:18;5.05;;;1.83;;
17890;SDS011;9071;48.220;14.480;2022-07-06T11:47:21;4.80;;;2.70;;
17890;SDS011;9071;48.220;14.480;2022-07-06T11:52:31;6.85;;;2.17;;
17890;SDS011;9071;48.220;14.480;2022-07-06T11:57:34;6.97;;;2.17;;
17890;SDS011;9071;48.220;14.480;2022-07-06T12:02:37;9.13;;;2.17;;
17890;SDS011;9071;48.220;14.480;2022-07-06T12:07:39;4.78;;;2.03;;
17890;SDS011;9071;48.220;14.480;2022-07-06T12:12:41;9.48;;;1.70;;
17890;SDS011;9071;48.220;14.480;2022-07-06T12:17:47;7.63;;;1.70;;
17890;SDS011;9071;48.220;14.480;2022-07-06T12:22:49;2.00;;;1.73;;
17890;SDS011;9071;48.220;14.480;2022-07-06T12:28:03;5.90;;;1.73;;
17890;SDS011;9071;48.220;14.480;2022-07-06T12:33:14;5.63;;;1.92;;
17890;SDS011;9071;48.220;14.480;2022-07-06T12:38:21;4.10;;;1.70;;
17890;SDS011;9071;48.220;14.480;2022-07-06T12:43:36;5.70;;;1.80;;
17890;SDS011;9071;48.220;14.480;2022-07-06T12:48:51;2.35;;;1.80;;
17890;SDS011;9071;48.220;14.480;2022-07-06T12:59:20;3.10;;;1.80;;
17890;SDS011;9071;48.220;14.480;2022-07-06T13:04:26;4.15;;;1.80;;
17890;SDS011;9071;48.220;14.480;2022-07-06T13:09:29;2.20;;;1.70;;
17890;SDS011;9071;48.220;14.480;2022-07-06T13:14:31;4.22;;;1.88;;
17890;SDS011;9071;48.220;14.480;2022-07-06T13:19:35;3.58;;;1.60;;
17890;SDS011;9071;48.220;14.480;2022-07-06T13:24:37;3.75;;;1.90;;
17890;SDS011;9071;48.220;14.480;2022-07-06T13:29:39;1.85;;;1.67;;
17890;SDS011;9071;48.220;14.480;2022-07-06T13:34:42;2.42;;;2.20;;
17890;SDS011;9071;48.220;14.480;2022-07-06T13:39:44;2.45;;;2.17;;
17890;SDS011;9071;48.220;14.480;2022-07-06T13:44:46;3.28;;;2.25;;
17890;SDS011;9071;48.220;14.480;2022-07-06T13:49:50;2.65;;;2.20;;
17890;SDS011;9071;48.220;14.480;2022-07-06T13:54:52;3.90;;;2.38;;
17890;SDS011;9071;48.220;14.480;2022-07-06T13:59:54;4.53;;;2.13;;
17890;SDS011;9071;48.220;14.480;2022-07-06T14:04:57;2.42;;;2.20;;
17890;SDS011;9071;48.220;14.480;2022-07-06T14:09:59;2.40;;;2.20;;
17890;SDS011;9071;48.220;14.480;2022-07-06T14:15:01;3.90;;;2.35;;
17890;SDS011;9071;48.220;14.480;2022-07-06T14:20:06;2.10;;;1.88;;
17890;SDS011;9071;48.220;14.480;2022-07-06T14:25:09;2.45;;;2.25;;
17890;SDS011;9071;48.220;14.480;2022-07-06T14:30:11;3.58;;;2.30;;
17890;SDS011;9071;48.220;14.480;2022-07-06T14:35:15;4.07;;;2.08;;
17890;SDS011;9071;48.220;14.480;2022-07-06T14:40:17;5.60;;;2.20;;
17890;SDS011;9071;48.220;14.480;2022-07-06T14:45:19;2.38;;;1.77;;
17890;SDS011;9071;48.220;14.480;2022-07-06T14:50:23;3.17;;;1.73;;
17890;SDS011;9071;48.220;14.480;2022-07-06T14:55:25;3.08;;;2.17;;
17890;SDS011;9071;48.220;14.480;2022-07-06T15:00:27;3.72;;;1.85;;
17890;SDS011;9071;48.220;14.480;2022-07-06T15:05:31;4.53;;;1.90;;
17890;SDS011;9071;48.220;14.480;2022-07-06T15:10:33;3.88;;;1.65;;
17890;SDS011;9071;48.220;14.480;2022-07-06T15:15:35;3.58;;;1.67;;
17890;SDS011;9071;48.220;14.480;2022-07-06T15:20:39;4.53;;;2.10;;
17890;SDS011;9071;48.220;14.480;2022-07-06T15:25:41;1.83;;;1.73;;
17890;SDS011;9071;48.220;14.480;2022-07-06T15:30:43;2.90;;;1.52;;
17890;SDS011;9071;48.220;14.480;2022-07-06T15:35:46;3.33;;;1.75;;
17890;SDS011;9071;48.220;14.480;2022-07-06T15:40:49;6.72;;;1.88;;
17890;SDS011;9071;48.220;14.480;2022-07-06T15:45:56;3.63;;;2.00;;
17890;SDS011;9071;48.220;14.480;2022-07-06T15:51:01;6.30;;;2.00;;
17890;SDS011;9071;48.220;14.480;2022-07-06T15:56:04;7.72;;;2.28;;
17890;SDS011;9071;48.220;14.480;2022-07-06T16:01:06;10.15;;;2.40;;
17890;SDS011;9071;48.220;14.480;2022-07-06T16:06:09;3.58;;;1.70;;
17890;SDS011;9071;48.220;14.480;2022-07-06T16:11:11;1.88;;;1.77;;
17890;SDS011;9071;48.220;14.480;2022-07-06T16:16:14;5.15;;;2.05;;
17890;SDS011;9071;48.220;14.480;2022-07-06T16:21:18;4.97;;;2.17;;
17890;SDS011;9071;48.220;14.480;2022-07-06T16:26:20;3.70;;;2.00;;
17890;SDS011;9071;48.220;14.480;2022-07-06T16:31:22;4.88;;;1.90;;
17890;SDS011;9071;48.220;14.480;2022-07-06T16:36:25;2.33;;;1.73;;
17890;SDS011;9071;48.220;14.480;2022-07-06T16:41:28;2.78;;;1.85;;
17890;SDS011;9071;48.220;14.480;2022-07-06T16:46:30;3.42;;;1.90;;
17890;SDS011;9071;48.220;14.480;2022-07-06T16:51:38;8.32;;;2.65;;
17890;SDS011;9071;48.220;14.480;2022-07-06T16:56:40;9.38;;;2.88;;
17890;SDS011;9071;48.220;14.480;2022-07-06T17:01:42;5.13;;;2.10;;
17890;SDS011;9071;48.220;14.480;2022-07-06T17:06:46;2.97;;;2.30;;
17890;SDS011;9071;48.220;14.480;2022-07-06T17:11:48;5.75;;;2.50;;
17890;SDS011;9071;48.220;14.480;2022-07-06T17:16:50;4.85;;;1.95;;
17890;SDS011;9071;48.220;14.480;2022-07-06T17:21:54;5.22;;;2.40;;
17890;SDS011;9071;48.220;14.480;2022-07-06T17:26:56;4.38;;;2.50;;
17890;SDS011;9071;48.220;14.480;2022-07-06T17:31:58;5.32;;;2.00;;
17890;SDS011;9071;48.220;14.480;2022-07-06T17:37:01;9.63;;;2.60;;
17890;SDS011;9071;48.220;14.480;2022-07-06T17:42:04;3.10;;;1.90;;
17890;SDS011;9071;48.220;14.480;2022-07-06T17:47:07;2.05;;;1.95;;
17890;SDS011;9071;48.220;14.480;2022-07-06T17:52:10;3.10;;;1.90;;
17890;SDS011;9071;48.220;14.480;2022-07-06T17:57:15;3.03;;;2.20;;
17890;SDS011;9071;48.220;14.480;2022-07-06T18:02:17;2.45;;;2.03;;
17890;SDS011;9071;48.220;14.480;2022-07-06T18:07:21;6.35;;;2.00;;
17890;SDS011;9071;48.220;14.480;2022-07-06T18:12:23;3.38;;;2.30;;
17890;SDS011;9071;48.220;14.480;2022-07-06T18:17:25;3.45;;;2.10;;
17890;SDS011;9071;48.220;14.480;2022-07-06T18:22:29;3.58;;;2.33;;
17890;SDS011;9071;48.220;14.480;2022-07-06T18:27:31;2.90;;;2.60;;
17890;SDS011;9071;48.220;14.480;2022-07-06T18:32:33;4.43;;;2.30;;
17890;SDS011;9071;48.220;14.480;2022-07-06T18:37:37;12.38;;;2.70;;
17890;SDS011;9071;48.220;14.480;2022-07-06T18:42:39;8.45;;;2.60;;
17890;SDS011;9071;48.220;14.480;2022-07-06T18:47:42;3.08;;;2.60;;
17890;SDS011;9071;48.220;14.480;2022-07-06T18:52:46;3.15;;;2.67;;
17890;SDS011;9071;48.220;14.480;2022-07-06T18:57:48;4.75;;;3.20;;
17890;SDS011;9071;48.220;14.480;2022-07-06T19:02:50;2.90;;;2.40;;
17890;SDS011;9071;48.220;14.480;2022-07-06T19:07:53;4.40;;;3.25;;
17890;SDS011;9071;48.220;14.480;2022-07-06T19:12:56;4.10;;;2.53;;
17890;SDS011;9071;48.220;14.480;2022-07-06T19:17:58;3.38;;;2.83;;
17890;SDS011;9071;48.220;14.480;2022-07-06T19:23:02;3.78;;;3.03;;
17890;SDS011;9071;48.220;14.480;2022-07-06T19:28:04;3.20;;;2.83;;
17890;SDS011;9071;48.220;14.480;2022-07-06T19:33:06;5.68;;;3.05;;
17890;SDS011;9071;48.220;14.480;2022-07-06T19:38:10;4.45;;;3.53;;
17890;SDS011;9071;48.220;14.480;2022-07-06T19:43:12;3.50;;;3.20;;
17890;SDS011;9071;48.220;14.480;2022-07-06T19:48:14;3.70;;;3.40;;
17890;SDS011;9071;48.220;14.480;2022-07-06T19:53:17;3.65;;;3.35;;
17890;SDS011;9071;48.220;14.480;2022-07-06T19:58:19;3.40;;;3.10;;
17890;SDS011;9071;48.220;14.480;2022-07-06T20:03:22;4.53;;;3.10;;
17890;SDS011;9071;48.220;14.480;2022-07-06T20:08:27;3.67;;;3.00;;
17890;SDS011;9071;48.220;14.480;2022-07-06T20:13:29;3.55;;;3.28;;
17890;SDS011;9071;48.220;14.480;2022-07-06T20:18:31;5.57;;;4.30;;
17890;SDS011;9071;48.220;14.480;2022-07-06T20:23:34;7.32;;;5.32;;
17890;SDS011;9071;48.220;14.480;2022-07-06T20:28:36;8.05;;;5.65;;
17890;SDS011;9071;48.220;14.480;2022-07-06T20:33:39;6.55;;;5.95;;
17890;SDS011;9071;48.220;14.480;2022-07-06T20:38:42;7.47;;;4.80;;
17890;SDS011;9071;48.220;14.480;2022-07-06T20:43:44;6.38;;;5.13;;
17890;SDS011;9071;48.220;14.480;2022-07-06T20:48:46;8.13;;;4.90;;
17890;SDS011;9071;48.220;14.480;2022-07-06T20:53:50;6.60;;;4.72;;
17890;SDS011;9071;48.220;14.480;2022-07-06T20:58:52;5.50;;;5.00;;
17890;SDS011;9071;48.220;14.480;2022-07-06T21:03:55;6.75;;;4.63;;
17890;SDS011;9071;48.220;14.480;2022-07-06T21:08:58;7.07;;;5.32;;
17890;SDS011;9071;48.220;14.480;2022-07-06T21:14:00;5.90;;;4.55;;
17890;SDS011;9071;48.220;14.480;2022-07-06T21:19:02;7.10;;;5.00;;
17890;SDS011;9071;48.220;14.480;2022-07-06T21:24:06;5.60;;;5.10;;
17890;SDS011;9071;48.220;14.480;2022-07-06T21:29:09;9.40;;;5.80;;
17890;SDS011;9071;48.220;14.480;2022-07-06T21:34:11;7.80;;;5.60;;
17890;SDS011;9071;48.220;14.480;2022-07-06T21:39:14;7.90;;;5.80;;
17890;SDS011;9071;48.220;14.480;2022-07-06T21:44:16;9.35;;;6.38;;
17890;SDS011;9071;48.220;14.480;2022-07-06T21:49:18;9.05;;;5.78;;
17890;SDS011;9071;48.220;14.480;2022-07-06T21:54:22;8.13;;;6.07;;
17890;SDS011;9071;48.220;14.480;2022-07-06T21:59:24;11.07;;;6.40;;
17890;SDS011;9071;48.220;14.480;2022-07-06T22:04:27;13.65;;;6.68;;
17890;SDS011;9071;48.220;14.480;2022-07-06T22:09:30;7.97;;;6.40;;
17890;SDS011;9071;48.220;14.480;2022-07-06T22:14:32;9.68;;;6.72;;
17890;SDS011;9071;48.220;14.480;2022-07-06T22:19:34;10.20;;;7.00;;
17890;SDS011;9071;48.220;14.480;2022-07-06T22:24:38;8.10;;;7.10;;
17890;SDS011;9071;48.220;14.480;2022-07-06T22:29:40;10.23;;;7.15;;
17890;SDS011;9071;48.220;14.480;2022-07-06T22:34:42;8.35;;;6.68;;
17890;SDS011;9071;48.220;14.480;2022-07-06T22:39:46;7.80;;;6.97;;
17890;SDS011;9071;48.220;14.480;2022-07-06T22:44:49;14.45;;;8.02;;
17890;SDS011;9071;48.220;14.480;2022-07-06T22:49:51;8.38;;;7.25;;
17890;SDS011;9071;48.220;14.480;2022-07-06T22:54:55;8.95;;;7.00;;
17890;SDS011;9071;48.220;14.480;2022-07-06T22:59:57;7.90;;;6.60;;
17890;SDS011;9071;48.220;14.480;2022-07-06T23:04:59;8.65;;;6.57;;
17890;SDS011;9071;48.220;14.480;2022-07-06T23:10:02;7.05;;;6.35;;
17890;SDS011;9071;48.220;14.480;2022-07-06T23:15:05;7.45;;;6.22;;
17890;SDS011;9071;48.220;14.480;2022-07-06T23:20:09;9.07;;;6.32;;
17890;SDS011;9071;48.220;14.480;2022-07-06T23:25:13;7.65;;;6.72;;
17890;SDS011;9071;48.220;14.480;2022-07-06T23:30:15;8.27;;;6.20;;
17890;SDS011;9071;48.220;14.480;2022-07-06T23:35:17;7.00;;;6.30;;
17890;SDS011;9071;48.220;14.480;2022-07-06T23:40:21;7.97;;;7.10;;
17890;SDS011;9071;48.220;14.480;2022-07-06T23:45:23;11.45;;;6.70;;
17890;SDS011;9071;48.220;14.480;2022-07-06T23:50:25;10.23;;;6.82;;
17890;SDS011;9071;48.220;14.480;2022-07-06T23:55:29;8.43;;;7.13;;
